Time;durP1;ratioP1;P1;durP2;ratioP2;P2;SDS_P1;SDS_P2;PMS_P1;PMS_P2;Temp;Humidity;BMP_temperature;BMP_pressure;BME280_temperature;BME280_humidity;BME280_pressure;Samples;Min_cycle;Max_cycle;Signal;HPM_P1;HPM_P2
2023/03/18 00:01:18;;;;;;;3.33;2.10;;;;;;;;;;5073542;28;20204;-68
2023/03/18 00:03:44;;;;;;;6.90;2.40;;;;;;;;;;5073765;28;20231;-68
2023/03/18 00:06:12;;;;;;;4.23;2.30;;;;;;;;;;5073735;28;20203;-69
2023/03/18 00:08:39;;;;;;;3.63;2.50;;;;;;;;;;5073647;28;20727;-67
2023/03/18 00:11:05;;;;;;;2.60;2.23;;;;;;;;;;5073316;28;20293;-67
2023/03/18 00:13:32;;;;;;;3.07;2.27;;;;;;;;;;5073181;28;20196;-67
2023/03/18 00:16:00;;;;;;;4.00;2.40;;;;;;;;;;5073298;28;20230;-68
2023/03/18 00:18:26;;;;;;;5.10;2.30;;;;;;;;;;5073308;28;20230;-68
2023/03/18 00:20:52;;;;;;;2.43;2.23;;;;;;;;;;5073316;28;20191;-68
2023/03/18 00:23:18;;;;;;;4.00;2.03;;;;;;;;;;5072915;28;20577;-68
2023/03/18 00:25:46;;;;;;;4.13;2.20;;;;;;;;;;5073071;28;20188;-68
2023/03/18 00:28:12;;;;;;;3.80;2.20;;;;;;;;;;5073029;28;20210;-69
2023/03/18 00:30:40;;;;;;;3.47;2.20;;;;;;;;;;5073111;28;20238;-68
2023/03/18 00:33:08;;;;;;;4.77;2.43;;;;;;;;;;5072888;28;20692;-68
2023/03/18 00:35:35;;;;;;;4.03;2.10;;;;;;;;;;5072473;28;20289;-69
2023/03/18 00:38:02;;;;;;;3.87;2.50;;;;;;;;;;5073020;28;20290;-70
2023/03/18 00:40:41;;;;;;;5.47;2.60;;;;;;;;;;5072637;28;20195;-69
2023/03/18 00:43:07;;;;;;;4.93;2.50;;;;;;;;;;5072934;28;20294;-68
2023/03/18 00:45:36;;;;;;;4.00;2.47;;;;;;;;;;5072537;28;20723;-70
2023/03/18 00:48:02;;;;;;;3.70;2.33;;;;;;;;;;5072475;28;20287;-69
2023/03/18 00:50:30;;;;;;;6.33;2.40;;;;;;;;;;5066712;28;20199;-67
2023/03/18 00:52:56;;;;;;;3.67;2.27;;;;;;;;;;5049326;28;20211;-67
2023/03/18 00:55:22;;;;;;;3.57;2.60;;;;;;;;;;5052801;28;20670;-68
2023/03/18 00:57:48;;;;;;;5.67;2.47;;;;;;;;;;5052761;28;20207;-70
2023/03/18 01:00:18;;;;;;;2.97;2.53;;;;;;;;;;5052598;28;20253;-70
2023/03/18 01:02:44;;;;;;;5.27;3.00;;;;;;;;;;5052196;28;20204;-70
2023/03/18 01:05:11;;;;;;;4.33;2.67;;;;;;;;;;5052471;28;20570;-69
2023/03/18 01:07:40;;;;;;;4.07;2.50;;;;;;;;;;5052454;28;20719;-69
2023/03/18 01:10:07;;;;;;;4.20;2.57;;;;;;;;;;5052638;28;20202;-66
2023/03/18 01:12:33;;;;;;;3.00;2.50;;;;;;;;;;5052321;28;20199;-67
2023/03/18 01:14:59;;;;;;;5.53;2.70;;;;;;;;;;5052178;28;20234;-67
2023/03/18 01:17:25;;;;;;;5.10;2.80;;;;;;;;;;5052349;28;20672;-66
2023/03/18 01:19:51;;;;;;;4.27;2.80;;;;;;;;;;5052238;28;20184;-65
2023/03/18 01:22:18;;;;;;;5.70;3.00;;;;;;;;;;5052149;28;20191;-66
2023/03/18 01:24:46;;;;;;;4.97;3.23;;;;;;;;;;5052024;28;20204;-65
2023/03/18 01:27:12;;;;;;;3.47;3.13;;;;;;;;;;5052140;28;20251;-67
2023/03/18 01:29:39;;;;;;;5.10;3.03;;;;;;;;;;5052272;28;20295;-67
2023/03/18 01:32:05;;;;;;;3.43;2.90;;;;;;;;;;5052160;28;20200;-67
2023/03/18 01:34:31;;;;;;;6.93;3.67;;;;;;;;;;5051760;28;20247;-69
2023/03/18 01:36:58;;;;;;;7.40;3.20;;;;;;;;;;5051909;28;20200;-67
2023/03/18 01:39:24;;;;;;;4.90;3.30;;;;;;;;;;5051915;28;20204;-67
2023/03/18 01:41:51;;;;;;;5.07;3.63;;;;;;;;;;5051830;28;20222;-67
2023/03/18 01:44:19;;;;;;;6.00;3.77;;;;;;;;;;5051996;28;20196;-66
2023/03/18 01:46:46;;;;;;;7.40;3.90;;;;;;;;;;5051674;28;20588;-66
2023/03/18 01:49:15;;;;;;;4.17;3.57;;;;;;;;;;5051760;28;20283;-65
2023/03/18 01:51:41;;;;;;;5.80;3.60;;;;;;;;;;5051611;28;20204;-65
2023/03/18 01:54:08;;;;;;;4.43;3.33;;;;;;;;;;5051779;28;20217;-65
2023/03/18 01:56:35;;;;;;;5.80;3.90;;;;;;;;;;5051497;28;20206;-65
2023/03/18 01:59:04;;;;;;;8.80;3.97;;;;;;;;;;5051608;28;20254;-66
2023/03/18 02:01:32;;;;;;;6.47;4.27;;;;;;;;;;5051629;28;20200;-65
2023/03/18 02:03:59;;;;;;;5.83;4.03;;;;;;;;;;5051520;28;20210;-64
2023/03/18 02:06:25;;;;;;;5.47;3.97;;;;;;;;;;5051501;28;20246;-64
2023/03/18 02:08:51;;;;;;;7.73;4.00;;;;;;;;;;5051605;28;20269;-66
2023/03/18 02:11:17;;;;;;;5.97;4.90;;;;;;;;;;5051618;28;20658;-66
2023/03/18 02:13:45;;;;;;;6.93;4.53;;;;;;;;;;5050799;28;20196;-66
2023/03/18 02:16:15;;;;;;;7.87;4.83;;;;;;;;;;5051470;28;20230;-66
2023/03/18 02:18:43;;;;;;;7.60;4.80;;;;;;;;;;5050558;28;20219;-66
2023/03/18 02:21:21;;;;;;;6.97;5.10;;;;;;;;;;5050699;28;20192;-65
2023/03/18 02:23:52;;;;;;;7.30;5.07;;;;;;;;;;5050367;28;20200;-66
2023/03/18 02:26:21;;;;;;;8.40;5.60;;;;;;;;;;5050386;28;20246;-66
2023/03/18 02:28:50;;;;;;;9.80;5.37;;;;;;;;;;5050642;28;20207;-67
2023/03/18 02:31:16;;;;;;;8.80;5.00;;;;;;;;;;5050925;28;20208;-67
2023/03/18 02:33:43;;;;;;;6.70;5.33;;;;;;;;;;5051237;28;20243;-68
2023/03/18 02:36:11;;;;;;;7.30;5.57;;;;;;;;;;5051212;28;20274;-68
2023/03/18 02:38:40;;;;;;;9.23;5.40;;;;;;;;;;5051177;28;20666;-69
2023/03/18 02:41:06;;;;;;;9.53;5.40;;;;;;;;;;5051326;28;20226;-68
2023/03/18 02:43:32;;;;;;;8.83;5.93;;;;;;;;;;5051660;28;20449;-68
2023/03/18 02:46:05;;;;;;;8.83;5.90;;;;;;;;;;5050847;28;20717;-69
2023/03/18 02:48:35;;;;;;;7.67;5.97;;;;;;;;;;5051022;28;20583;-69
2023/03/18 02:51:02;;;;;;;9.80;6.23;;;;;;;;;;5051123;28;20200;-70
2023/03/18 02:53:28;;;;;;;7.77;5.90;;;;;;;;;;5050908;28;20720;-69
2023/03/18 02:55:54;;;;;;;7.47;6.37;;;;;;;;;;5051090;28;20332;-68
2023/03/18 02:58:20;;;;;;;9.23;6.80;;;;;;;;;;5051157;28;20246;-69
2023/03/18 03:00:46;;;;;;;10.47;6.43;;;;;;;;;;5051151;28;20254;-68
2023/03/18 03:03:13;;;;;;;9.90;6.50;;;;;;;;;;5051018;28;20368;-68
2023/03/18 03:05:39;;;;;;;9.13;6.30;;;;;;;;;;5050912;28;20204;-68
2023/03/18 03:08:06;;;;;;;12.23;7.00;;;;;;;;;;5050964;28;20538;-68
2023/03/18 03:10:32;;;;;;;7.20;6.33;;;;;;;;;;5050764;28;20737;-68
2023/03/18 03:12:59;;;;;;;8.60;6.70;;;;;;;;;;5050837;28;20220;-68
2023/03/18 03:15:25;;;;;;;11.17;6.87;;;;;;;;;;5050993;28;20231;-68
2023/03/18 03:17:51;;;;;;;9.50;6.60;;;;;;;;;;5050957;28;20867;-68
2023/03/18 03:20:19;;;;;;;8.50;7.27;;;;;;;;;;5050707;28;20634;-67
2023/03/18 03:22:46;;;;;;;11.10;7.20;;;;;;;;;;5050555;28;20207;-66
2023/03/18 03:25:12;;;;;;;8.50;7.37;;;;;;;;;;5052814;28;20200;-66
2023/03/18 03:27:38;;;;;;;12.27;7.47;;;;;;;;;;5054529;28;20620;-67
2023/03/18 03:30:05;;;;;;;10.40;7.53;;;;;;;;;;5054376;28;20212;-67
2023/03/18 03:32:31;;;;;;;11.27;7.30;;;;;;;;;;5054219;28;20654;-68
2023/03/18 03:34:57;;;;;;;13.20;8.40;;;;;;;;;;5054157;28;20227;-68
2023/03/18 03:37:24;;;;;;;10.07;7.07;;;;;;;;;;5054250;28;20261;-68
2023/03/18 03:39:50;;;;;;;9.77;7.30;;;;;;;;;;5054335;28;20258;-66
2023/03/18 03:42:16;;;;;;;9.53;7.47;;;;;;;;;;5054058;28;20212;-66
2023/03/18 03:44:42;;;;;;;12.13;7.87;;;;;;;;;;5054218;28;20550;-69
2023/03/18 03:47:09;;;;;;;9.73;8.07;;;;;;;;;;5054268;28;20250;-68
2023/03/18 03:49:35;;;;;;;10.17;8.13;;;;;;;;;;5053842;28;20286;-65
2023/03/18 03:52:01;;;;;;;9.67;8.30;;;;;;;;;;5054017;28;20603;-65
2023/03/18 03:54:29;;;;;;;9.70;8.17;;;;;;;;;;5053773;28;20246;-64
2023/03/18 03:56:55;;;;;;;11.10;7.57;;;;;;;;;;5054174;28;20203;-65
2023/03/18 03:59:21;;;;;;;12.80;8.33;;;;;;;;;;5053889;28;20195;-65
2023/03/18 04:01:47;;;;;;;11.13;7.90;;;;;;;;;;5053849;28;20196;-65
2023/03/18 04:04:14;;;;;;;11.53;8.17;;;;;;;;;;5053605;28;20326;-65
2023/03/18 04:06:40;;;;;;;12.67;8.23;;;;;;;;;;5053715;28;20246;-65
2023/03/18 04:09:06;;;;;;;12.37;8.87;;;;;;;;;;5053781;28;20200;-64
2023/03/18 04:11:33;;;;;;;11.80;8.40;;;;;;;;;;5053742;28;20200;-64
2023/03/18 04:13:59;;;;;;;12.37;9.00;;;;;;;;;;5053613;28;20204;-64
2023/03/18 04:16:25;;;;;;;12.87;9.17;;;;;;;;;;5053494;28;20207;-64
2023/03/18 04:18:51;;;;;;;13.87;8.67;;;;;;;;;;5053708;28;20277;-64
2023/03/18 04:21:17;;;;;;;11.10;8.20;;;;;;;;;;5053513;28;20637;-64
2023/03/18 04:23:43;;;;;;;11.50;8.07;;;;;;;;;;5053399;28;20841;-63
2023/03/18 04:26:11;;;;;;;11.23;8.23;;;;;;;;;;5053660;28;20188;-64
2023/03/18 04:28:39;;;;;;;11.53;8.80;;;;;;;;;;5053379;28;20280;-64
2023/03/18 04:31:05;;;;;;;11.27;8.30;;;;;;;;;;5053334;28;20306;-62
2023/03/18 04:33:31;;;;;;;10.50;8.27;;;;;;;;;;5053251;28;20296;-62
2023/03/18 04:35:57;;;;;;;11.33;8.43;;;;;;;;;;5052530;28;20778;-63
2023/03/18 04:38:23;;;;;;;11.60;8.57;;;;;;;;;;5053293;28;20204;-63
2023/03/18 04:40:49;;;;;;;9.50;7.70;;;;;;;;;;5053032;28;20646;-63
2023/03/18 04:43:15;;;;;;;9.47;7.77;;;;;;;;;;5052998;28;20215;-62
2023/03/18 04:45:43;;;;;;;10.53;7.27;;;;;;;;;;5052895;28;20301;-63
2023/03/18 04:48:09;;;;;;;12.40;8.17;;;;;;;;;;5053077;28;20200;-63
2023/03/18 04:50:36;;;;;;;11.63;8.60;;;;;;;;;;5052801;28;20210;-63
2023/03/18 04:53:02;;;;;;;14.43;9.40;;;;;;;;;;5052832;28;20425;-62
2023/03/18 04:55:28;;;;;;;11.67;8.77;;;;;;;;;;5052521;28;20726;-63
2023/03/18 04:57:54;;;;;;;9.90;7.80;;;;;;;;;;5053106;28;20200;-63
2023/03/18 05:00:21;;;;;;;10.27;8.07;;;;;;;;;;5052701;28;20258;-63
2023/03/18 05:02:48;;;;;;;12.43;8.67;;;;;;;;;;5052660;28;20397;-64
2023/03/18 05:05:14;;;;;;;9.50;7.90;;;;;;;;;;5052552;28;20205;-63
2023/03/18 05:07:41;;;;;;;12.73;7.70;;;;;;;;;;5052540;28;20203;-64
2023/03/18 05:10:07;;;;;;;12.00;7.80;;;;;;;;;;5052820;28;20286;-64
2023/03/18 05:12:35;;;;;;;9.70;8.40;;;;;;;;;;5052413;28;20662;-64
2023/03/18 05:15:01;;;;;;;11.20;7.30;;;;;;;;;;5052405;28;20715;-64
2023/03/18 05:17:27;;;;;;;11.33;8.00;;;;;;;;;;5052391;28;20234;-64
2023/03/18 05:19:55;;;;;;;10.43;7.37;;;;;;;;;;5052484;28;20215;-63
2023/03/18 05:22:21;;;;;;;11.73;7.60;;;;;;;;;;5052341;28;20201;-63
2023/03/18 05:24:47;;;;;;;9.07;7.17;;;;;;;;;;5052236;28;20608;-63
2023/03/18 05:27:14;;;;;;;12.07;7.53;;;;;;;;;;5052146;28;20188;-63
2023/03/18 05:29:40;;;;;;;9.90;7.80;;;;;;;;;;5052099;28;20200;-63
2023/03/18 05:32:07;;;;;;;10.83;7.43;;;;;;;;;;5052062;28;20303;-63
2023/03/18 05:34:33;;;;;;;10.80;7.40;;;;;;;;;;5051782;28;20256;-63
2023/03/18 05:37:01;;;;;;;8.13;7.27;;;;;;;;;;5051925;28;20208;-63
2023/03/18 05:39:27;;;;;;;13.13;8.20;;;;;;;;;;5052013;28;20192;-63
2023/03/18 05:41:53;;;;;;;12.30;8.00;;;;;;;;;;5052075;28;20277;-63
2023/03/18 05:44:19;;;;;;;13.63;7.30;;;;;;;;;;5051875;28;20266;-63
2023/03/18 05:46:45;;;;;;;10.30;7.03;;;;;;;;;;5051509;28;20339;-63
2023/03/18 05:49:11;;;;;;;10.50;7.27;;;;;;;;;;5050798;28;20235;-63
2023/03/18 05:51:38;;;;;;;11.60;8.03;;;;;;;;;;5051764;28;20196;-63
2023/03/18 05:54:05;;;;;;;9.90;6.90;;;;;;;;;;5051843;28;20247;-64
2023/03/18 05:56:31;;;;;;;11.03;6.93;;;;;;;;;;5051620;28;20204;-65
2023/03/18 05:58:57;;;;;;;13.17;7.10;;;;;;;;;;5051512;28;20674;-64
2023/03/18 06:01:23;;;;;;;11.07;6.93;;;;;;;;;;5051695;28;20674;-64
2023/03/18 06:03:50;;;;;;;9.63;7.57;;;;;;;;;;5051481;28;20195;-64
2023/03/18 06:06:16;;;;;;;9.37;7.00;;;;;;;;;;5051456;28;20685;-64
2023/03/18 06:08:42;;;;;;;9.40;6.40;;;;;;;;;;5051595;28;20228;-64
2023/03/18 06:11:10;;;;;;;10.07;6.40;;;;;;;;;;5051676;28;20249;-65
2023/03/18 06:13:36;;;;;;;7.00;6.10;;;;;;;;;;5051483;28;20211;-64
2023/03/18 06:16:02;;;;;;;9.30;6.33;;;;;;;;;;5051390;28;20342;-62
2023/03/18 06:18:29;;;;;;;8.33;5.67;;;;;;;;;;5051290;28;20291;-65
2023/03/18 06:20:55;;;;;;;8.77;6.07;;;;;;;;;;5051332;28;20204;-65
2023/03/18 06:23:21;;;;;;;12.27;5.60;;;;;;;;;;5051347;28;20200;-65
2023/03/18 06:25:48;;;;;;;8.37;4.93;;;;;;;;;;5051150;28;20196;-64
2023/03/18 06:28:15;;;;;;;8.13;5.30;;;;;;;;;;5051432;28;20200;-65
2023/03/18 06:30:41;;;;;;;10.50;5.30;;;;;;;;;;5051168;28;20200;-65
2023/03/18 06:33:08;;;;;;;6.87;4.83;;;;;;;;;;5051305;28;20613;-65
2023/03/18 06:35:35;;;;;;;9.97;5.47;;;;;;;;;;5051404;28;20224;-65
2023/03/18 06:38:01;;;;;;;8.87;4.80;;;;;;;;;;5051377;28;20270;-63
2023/03/18 06:40:27;;;;;;;6.93;4.93;;;;;;;;;;5051073;28;20227;-63
2023/03/18 06:42:54;;;;;;;9.17;5.17;;;;;;;;;;5051197;28;20232;-63
2023/03/18 06:45:21;;;;;;;8.83;5.30;;;;;;;;;;5050962;28;20228;-64
2023/03/18 06:47:48;;;;;;;8.83;5.00;;;;;;;;;;5051170;28;20279;-66
2023/03/18 06:50:15;;;;;;;6.63;4.80;;;;;;;;;;5051068;28;20199;-66
2023/03/18 06:52:41;;;;;;;8.03;4.70;;;;;;;;;;5050904;28;20724;-65
2023/03/18 06:55:08;;;;;;;6.80;4.90;;;;;;;;;;5051064;28;20756;-64
2023/03/18 06:57:34;;;;;;;6.47;4.77;;;;;;;;;;5050846;28;20245;-64
2023/03/18 07:00:00;;;;;;;8.67;5.10;;;;;;;;;;5052650;28;20314;-64
2023/03/18 07:02:27;;;;;;;10.07;5.37;;;;;;;;;;5054842;28;20295;-64
2023/03/18 07:04:54;;;;;;;9.60;5.07;;;;;;;;;;5054904;28;20203;-64
2023/03/18 07:07:21;;;;;;;9.67;5.77;;;;;;;;;;5054804;28;20249;-65
2023/03/18 07:09:47;;;;;;;7.57;5.10;;;;;;;;;;5054728;28;20216;-64
2023/03/18 07:12:13;;;;;;;8.63;5.50;;;;;;;;;;5054706;28;20207;-65
2023/03/18 07:14:39;;;;;;;7.67;5.23;;;;;;;;;;5054610;28;20263;-67
2023/03/18 07:17:06;;;;;;;11.27;5.37;;;;;;;;;;5054829;28;20223;-66
2023/03/18 07:19:34;;;;;;;7.47;5.10;;;;;;;;;;5054403;28;20228;-66
2023/03/18 07:22:01;;;;;;;7.47;5.17;;;;;;;;;;5054658;28;20204;-66
2023/03/18 07:24:27;;;;;;;6.93;4.97;;;;;;;;;;5054486;28;20196;-66
2023/03/18 07:26:53;;;;;;;8.70;4.77;;;;;;;;;;5054664;28;20200;-65
2023/03/18 07:29:19;;;;;;;8.03;4.97;;;;;;;;;;5054554;28;20291;-66
2023/03/18 07:31:46;;;;;;;7.33;4.90;;;;;;;;;;5054336;28;20211;-66
2023/03/18 07:34:13;;;;;;;5.83;4.67;;;;;;;;;;5054242;28;20196;-67
2023/03/18 07:36:41;;;;;;;8.33;5.03;;;;;;;;;;5054440;28;20258;-66
2023/03/18 07:39:09;;;;;;;7.37;4.80;;;;;;;;;;5054581;28;20204;-67
2023/03/18 07:41:35;;;;;;;6.03;4.50;;;;;;;;;;5053999;28;20421;-68
2023/03/18 07:44:02;;;;;;;5.30;4.67;;;;;;;;;;5054077;28;20460;-66
2023/03/18 07:46:28;;;;;;;8.77;4.63;;;;;;;;;;5053910;28;20315;-67
2023/03/18 07:48:54;;;;;;;10.57;5.07;;;;;;;;;;5054229;28;20609;-67
2023/03/18 07:51:21;;;;;;;7.80;4.50;;;;;;;;;;5053983;28;20679;-67
2023/03/18 07:53:50;;;;;;;5.10;4.23;;;;;;;;;;5053916;28;20283;-68
2023/03/18 07:56:16;;;;;;;10.07;4.67;;;;;;;;;;5053808;28;20220;-65
2023/03/18 07:58:42;;;;;;;6.93;4.17;;;;;;;;;;5053502;28;20763;-65
2023/03/18 08:01:08;;;;;;;7.90;4.33;;;;;;;;;;5054039;28;20286;-64
2023/03/18 08:03:35;;;;;;;6.00;4.43;;;;;;;;;;5053580;28;20204;-65
2023/03/18 08:06:01;;;;;;;5.90;4.20;;;;;;;;;;5053785;28;20200;-63
2023/03/18 08:08:27;;;;;;;6.73;4.60;;;;;;;;;;5053627;28;20192;-65
2023/03/18 08:10:59;;;;;;;7.70;4.30;;;;;;;;;;5052799;28;20270;-65
2023/03/18 08:13:25;;;;;;;6.00;4.40;;;;;;;;;;5053709;28;20405;-66
2023/03/18 08:15:51;;;;;;;6.30;4.30;;;;;;;;;;5053424;28;20695;-67
2023/03/18 08:18:18;;;;;;;7.37;4.60;;;;;;;;;;5053568;28;20199;-66
2023/03/18 08:20:44;;;;;;;7.40;4.87;;;;;;;;;;5053227;28;20192;-66
2023/03/18 08:23:11;;;;;;;8.57;4.53;;;;;;;;;;5053454;28;20590;-67
2023/03/18 08:25:37;;;;;;;9.70;5.13;;;;;;;;;;5053452;28;20204;-67
2023/03/18 08:28:06;;;;;;;5.83;4.50;;;;;;;;;;5053257;28;20228;-66
2023/03/18 08:30:32;;;;;;;6.30;4.83;;;;;;;;;;5053195;28;20231;-66
2023/03/18 08:32:58;;;;;;;6.17;4.40;;;;;;;;;;5053196;28;20267;-66
2023/03/18 08:35:25;;;;;;;8.17;5.17;;;;;;;;;;5053384;28;20228;-66
2023/03/18 08:37:51;;;;;;;6.80;4.63;;;;;;;;;;5053074;28;20188;-67
2023/03/18 08:40:18;;;;;;;5.77;4.20;;;;;;;;;;5052979;28;20303;-66
2023/03/18 08:42:44;;;;;;;6.70;4.27;;;;;;;;;;5052804;28;20215;-65
2023/03/18 08:45:12;;;;;;;11.10;5.10;;;;;;;;;;5035019;28;20242;-65
2023/03/18 08:47:38;;;;;;;6.70;4.80;;;;;;;;;;5052898;28;20742;-65
2023/03/18 08:50:04;;;;;;;6.23;4.53;;;;;;;;;;5053031;28;20269;-65
2023/03/18 08:52:31;;;;;;;8.60;4.53;;;;;;;;;;5052752;28;20192;-66
2023/03/18 08:54:57;;;;;;;6.53;4.90;;;;;;;;;;5052640;28;20337;-65
2023/03/18 08:57:23;;;;;;;6.33;4.80;;;;;;;;;;5052911;28;20196;-65
2023/03/18 08:59:50;;;;;;;6.97;4.50;;;;;;;;;;5052494;28;20254;-64
2023/03/18 09:02:17;;;;;;;6.83;4.53;;;;;;;;;;5052656;28;20249;-63
2023/03/18 09:04:43;;;;;;;8.50;4.80;;;;;;;;;;5052415;28;20200;-59
2023/03/18 09:07:09;;;;;;;7.03;4.90;;;;;;;;;;5052590;28;20238;-60
2023/03/18 09:09:36;;;;;;;8.57;4.83;;;;;;;;;;5052452;28;20258;-59
2023/03/18 09:12:04;;;;;;;5.60;4.33;;;;;;;;;;5052503;28;20204;-61
2023/03/18 09:14:31;;;;;;;7.10;4.50;;;;;;;;;;5052241;28;20192;-60
2023/03/18 09:16:58;;;;;;;7.60;4.47;;;;;;;;;;5052377;28;20488;-60
2023/03/18 09:19:25;;;;;;;6.53;4.43;;;;;;;;;;5052244;28;20666;-58
2023/03/18 09:21:51;;;;;;;9.93;5.10;;;;;;;;;;5051926;28;20588;-59
2023/03/18 09:24:17;;;;;;;7.90;5.33;;;;;;;;;;5052329;28;20204;-68
2023/03/18 09:26:43;;;;;;;6.53;4.83;;;;;;;;;;5052187;28;20283;-60
2023/03/18 09:29:10;;;;;;;7.07;4.43;;;;;;;;;;5052489;28;20196;-58
2023/03/18 09:31:36;;;;;;;6.60;4.37;;;;;;;;;;5052319;28;20292;-58
2023/03/18 09:34:02;;;;;;;8.63;5.03;;;;;;;;;;5052314;28;20650;-58
2023/03/18 09:36:29;;;;;;;7.37;4.63;;;;;;;;;;5052164;28;20228;-58
2023/03/18 09:38:55;;;;;;;7.20;4.50;;;;;;;;;;5052103;28;20204;-58
2023/03/18 09:41:28;;;;;;;8.17;5.30;;;;;;;;;;5052035;28;20552;-58
2023/03/18 09:44:07;;;;;;;12.20;9.10;;;;;;;;;;5051961;28;20271;-57
2023/03/18 09:46:39;;;;;;;9.33;5.87;;;;;;;;;;5049535;28;20311;-58
2023/03/18 09:49:12;;;;;;;8.40;5.07;;;;;;;;;;5051464;28;20234;-58
2023/03/18 09:51:45;;;;;;;6.53;4.77;;;;;;;;;;5051449;28;20192;-58
2023/03/18 09:54:13;;;;;;;6.50;4.57;;;;;;;;;;5051461;28;20250;-58
2023/03/18 09:56:40;;;;;;;7.40;4.77;;;;;;;;;;5051452;28;20232;-58
2023/03/18 09:59:13;;;;;;;7.97;4.60;;;;;;;;;;5051412;28;20196;-58
2023/03/18 10:01:40;;;;;;;7.33;4.60;;;;;;;;;;5051209;28;20662;-58
2023/03/18 10:04:10;;;;;;;6.20;4.97;;;;;;;;;;5051343;28;20231;-58
2023/03/18 10:06:36;;;;;;;5.97;4.37;;;;;;;;;;5051175;28;20280;-58
2023/03/18 10:09:07;;;;;;;7.60;5.03;;;;;;;;;;5051244;28;20200;-58
2023/03/18 10:11:36;;;;;;;6.13;4.70;;;;;;;;;;5051215;28;20638;-58
2023/03/18 10:14:17;;;;;;;8.10;5.00;;;;;;;;;;5051027;28;20288;-59
2023/03/18 10:16:48;;;;;;;7.43;5.70;;;;;;;;;;5048306;28;20231;-58
2023/03/18 10:19:14;;;;;;;6.90;5.67;;;;;;;;;;5051105;28;20204;-58
2023/03/18 10:21:44;;;;;;;9.27;5.47;;;;;;;;;;5051068;28;20196;-58
2023/03/18 10:24:20;;;;;;;7.83;5.40;;;;;;;;;;5051107;28;20607;-58
2023/03/18 10:26:51;;;;;;;5.90;4.90;;;;;;;;;;5050917;28;20231;-58
2023/03/18 10:29:30;;;;;;;8.37;5.33;;;;;;;;;;5050991;28;20728;-57
2023/03/18 10:32:07;;;;;;;7.57;5.50;;;;;;;;;;5051083;28;20199;-58
2023/03/18 10:34:37;;;;;;;8.20;6.07;;;;;;;;;;5053589;28;20238;-58
2023/03/18 10:37:06;;;;;;;6.97;5.67;;;;;;;;;;5057433;28;20206;-58
2023/03/18 10:39:34;;;;;;;9.67;6.20;;;;;;;;;;5057601;28;20399;-57
2023/03/18 10:42:02;;;;;;;8.47;5.87;;;;;;;;;;5057726;28;20226;-58
2023/03/18 10:44:29;;;;;;;8.27;6.37;;;;;;;;;;5057877;28;20195;-58
2023/03/18 10:46:58;;;;;;;7.67;6.87;;;;;;;;;;5057721;28;20322;-58
2023/03/18 10:49:27;;;;;;;8.17;6.60;;;;;;;;;;5057907;28;20278;-58
2023/03/18 10:51:54;;;;;;;11.13;6.50;;;;;;;;;;5057845;28;20195;-58
2023/03/18 10:54:23;;;;;;;9.13;6.47;;;;;;;;;;5056033;28;20203;-58
2023/03/18 10:56:51;;;;;;;7.77;6.53;;;;;;;;;;5057624;28;20319;-59
2023/03/18 10:59:19;;;;;;;11.93;8.87;;;;;;;;;;5057877;28;20211;-58
2023/03/18 11:01:46;;;;;;;12.27;10.70;;;;;;;;;;5057713;28;20241;-58
2023/03/18 11:04:14;;;;;;;15.07;10.97;;;;;;;;;;5057677;28;20200;-58
2023/03/18 11:06:42;;;;;;;12.67;11.50;;;;;;;;;;5057694;28;20188;-61
2023/03/18 11:09:09;;;;;;;13.90;11.77;;;;;;;;;;5057944;28;20196;-58
2023/03/18 11:11:38;;;;;;;15.53;13.33;;;;;;;;;;5057680;28;20638;-58
2023/03/18 11:14:07;;;;;;;14.67;13.27;;;;;;;;;;5057754;28;20573;-58
2023/03/18 11:16:36;;;;;;;15.10;13.50;;;;;;;;;;5057656;28;20225;-58
2023/03/18 11:19:07;;;;;;;15.53;13.87;;;;;;;;;;5057516;28;20210;-59
2023/03/18 11:21:34;;;;;;;15.83;13.23;;;;;;;;;;5057689;28;20200;-58
2023/03/18 11:24:09;;;;;;;15.93;13.17;;;;;;;;;;5057422;28;20196;-58
2023/03/18 11:26:43;;;;;;;16.63;13.50;;;;;;;;;;5057813;28;20199;-58
2023/03/18 11:29:12;;;;;;;15.07;13.40;;;;;;;;;;5057534;28;20552;-59
2023/03/18 11:31:48;;;;;;;14.30;12.90;;;;;;;;;;5057596;28;20223;-59
2023/03/18 11:34:17;;;;;;;15.20;13.70;;;;;;;;;;5057573;28;20196;-59
2023/03/18 11:36:51;;;;;;;15.33;12.37;;;;;;;;;;5057493;28;20231;-60
2023/03/18 11:39:18;;;;;;;15.27;13.10;;;;;;;;;;5057572;28;20203;-59
2023/03/18 11:41:44;;;;;;;15.97;13.33;;;;;;;;;;5057187;28;20207;-59
2023/03/18 11:44:16;;;;;;;14.27;12.87;;;;;;;;;;5057543;28;20670;-58
2023/03/18 11:46:44;;;;;;;16.87;12.53;;;;;;;;;;5054780;28;20237;-58
2023/03/18 11:49:12;;;;;;;14.37;12.87;;;;;;;;;;5054509;28;20200;-58
2023/03/18 11:51:43;;;;;;;15.53;13.33;;;;;;;;;;5054288;28;20204;-58
2023/03/18 11:54:16;;;;;;;13.53;12.13;;;;;;;;;;5054507;28;20614;-58
2023/03/18 11:56:43;;;;;;;13.03;11.83;;;;;;;;;;5054190;28;20306;-58
2023/03/18 11:59:19;;;;;;;13.37;11.97;;;;;;;;;;5054046;28;20559;-58
2023/03/18 12:01:52;;;;;;;15.33;13.40;;;;;;;;;;5053850;28;20200;-58
2023/03/18 12:04:26;;;;;;;13.93;12.43;;;;;;;;;;5053946;28;20249;-58
2023/03/18 12:06:59;;;;;;;14.40;12.57;;;;;;;;;;5054010;28;20196;-58
2023/03/18 12:09:29;;;;;;;15.00;13.37;;;;;;;;;;5054227;28;20231;-57
2023/03/18 12:12:03;;;;;;;16.03;14.43;;;;;;;;;;5053815;28;20200;-57
2023/03/18 12:14:34;;;;;;;14.97;13.37;;;;;;;;;;5053858;28;20573;-57
2023/03/18 12:17:04;;;;;;;12.23;11.00;;;;;;;;;;5053524;28;20263;-58
2023/03/18 12:19:42;;;;;;;14.30;12.17;;;;;;;;;;5053686;28;20433;-57
2023/03/18 12:22:18;;;;;;;14.53;12.10;;;;;;;;;;5053856;28;20200;-58
2023/03/18 12:24:55;;;;;;;14.43;12.27;;;;;;;;;;5053541;28;20294;-58
2023/03/18 12:27:27;;;;;;;13.20;11.40;;;;;;;;;;5053768;28;20196;-58
2023/03/18 12:30:03;;;;;;;14.03;11.83;;;;;;;;;;5053780;28;20204;-59
2023/03/18 12:32:32;;;;;;;14.30;12.47;;;;;;;;;;5053554;28;20234;-58
2023/03/18 12:35:11;;;;;;;15.33;11.77;;;;;;;;;;5053208;28;20300;-58
2023/03/18 12:37:45;;;;;;;13.90;11.60;;;;;;;;;;5053698;28;20738;-56
2023/03/18 12:40:21;;;;;;;12.43;10.40;;;;;;;;;;5061971;28;20658;-61
2023/03/18 12:42:54;;;;;;;13.57;10.20;;;;;;;;;;5073410;28;20214;-58
2023/03/18 12:45:25;;;;;;;12.57;10.30;;;;;;;;;;5073332;28;20289;-59
2023/03/18 12:47:55;;;;;;;15.17;10.50;;;;;;;;;;5073278;28;20208;-60
2023/03/18 12:50:24;;;;;;;10.57;9.50;;;;;;;;;;5073406;28;20207;-60
2023/03/18 12:52:52;;;;;;;10.90;9.87;;;;;;;;;;5073496;28;20187;-59
2023/03/18 12:55:21;;;;;;;10.87;9.70;;;;;;;;;;5073145;28;20259;-59
2023/03/18 12:57:48;;;;;;;10.83;9.43;;;;;;;;;;5072578;28;20197;-60
2023/03/18 13:00:22;;;;;;;11.30;9.50;;;;;;;;;;5073023;28;20207;-60
2023/03/18 13:02:52;;;;;;;10.50;8.80;;;;;;;;;;5072768;28;20214;-59
2023/03/18 13:05:24;;;;;;;9.90;8.77;;;;;;;;;;5073077;28;20234;-59
2023/03/18 13:07:53;;;;;;;10.90;9.53;;;;;;;;;;5073109;28;20223;-58
2023/03/18 13:10:20;;;;;;;10.53;8.70;;;;;;;;;;5070406;28;20274;-60
2023/03/18 13:12:48;;;;;;;8.77;7.93;;;;;;;;;;5054208;28;20279;-61
2023/03/18 13:15:17;;;;;;;9.63;8.60;;;;;;;;;;5072464;28;20222;-62
2023/03/18 13:17:45;;;;;;;9.57;8.33;;;;;;;;;;5072372;28;20541;-61
2023/03/18 13:20:14;;;;;;;10.30;7.93;;;;;;;;;;5072484;28;20564;-61
2023/03/18 13:22:53;;;;;;;10.30;7.87;;;;;;;;;;5072487;28;20208;-61
2023/03/18 13:25:27;;;;;;;9.33;7.03;;;;;;;;;;5072462;28;20201;-61
2023/03/18 13:28:02;;;;;;;7.87;7.10;;;;;;;;;;5072441;28;20668;-61
2023/03/18 13:30:35;;;;;;;8.97;7.80;;;;;;;;;;5072331;28;20190;-60
2023/03/18 13:33:19;;;;;;;8.60;7.50;;;;;;;;;;5072149;28;20201;-61
2023/03/18 13:35:55;;;;;;;11.13;8.23;;;;;;;;;;5071929;28;20828;-61
2023/03/18 13:38:37;;;;;;;9.30;8.20;;;;;;;;;;5072279;28;20190;-61
2023/03/18 13:41:11;;;;;;;8.43;7.40;;;;;;;;;;5072003;28;20533;-61
2023/03/18 13:43:38;;;;;;;9.10;7.83;;;;;;;;;;5072153;28;20235;-61
2023/03/18 13:46:04;;;;;;;11.17;7.50;;;;;;;;;;5072150;28;20273;-61
2023/03/18 13:48:32;;;;;;;9.70;7.60;;;;;;;;;;5072089;28;20193;-61
2023/03/18 13:51:13;;;;;;;10.17;7.80;;;;;;;;;;5071938;28;20206;-60
2023/03/18 13:53:41;;;;;;;10.63;8.17;;;;;;;;;;5072141;28;20224;-60
2023/03/18 13:56:26;;;;;;;8.27;7.17;;;;;;;;;;5072142;28;20323;-60
2023/03/18 13:58:52;;;;;;;8.70;6.83;;;;;;;;;;5072049;28;20293;-60
2023/03/18 14:01:28;;;;;;;7.70;6.13;;;;;;;;;;5071746;28;20274;-61
2023/03/18 14:04:01;;;;;;;8.67;7.70;;;;;;;;;;5071981;28;20276;-60
2023/03/18 14:06:52;;;;;;;13.70;8.77;;;;;;;;;;5071732;28;20195;-60
2023/03/18 14:09:22;;;;;;;8.63;7.00;;;;;;;;;;5070949;28;20229;-61
2023/03/18 14:11:51;;;;;;;8.10;7.30;;;;;;;;;;5071619;28;20208;-62
2023/03/18 14:14:31;;;;;;;7.17;6.50;;;;;;;;;;5071556;28;20721;-59
2023/03/18 14:16:57;;;;;;;9.00;7.43;;;;;;;;;;5068853;28;20224;-60
2023/03/18 14:19:31;;;;;;;9.10;6.83;;;;;;;;;;5071780;28;20205;-60
2023/03/18 14:22:06;;;;;;;7.37;5.97;;;;;;;;;;5071349;28;20572;-62
2023/03/18 14:24:32;;;;;;;8.40;7.20;;;;;;;;;;5071505;28;20234;-60
2023/03/18 14:27:09;;;;;;;8.67;7.37;;;;;;;;;;5071347;28;20217;-60
2023/03/18 14:29:38;;;;;;;6.90;6.30;;;;;;;;;;5071337;28;20609;-60
2023/03/18 14:32:07;;;;;;;8.13;7.33;;;;;;;;;;5071093;28;20295;-60
2023/03/18 14:34:33;;;;;;;6.80;6.17;;;;;;;;;;5071247;28;20201;-60
2023/03/18 14:37:19;;;;;;;6.93;6.10;;;;;;;;;;5071096;28;20260;-60
2023/03/18 14:39:47;;;;;;;5.90;5.17;;;;;;;;;;5071212;28;20292;-60
2023/03/18 14:42:18;;;;;;;8.50;7.00;;;;;;;;;;5071399;28;20211;-60